createdAt,value
2023-01-03T00:01:39.413Z,9.10
2023-01-03T00:04:49.173Z,5.10
2023-01-03T00:07:53.508Z,6.80
2023-01-03T00:10:57.227Z,7.33
2023-01-03T00:13:59.903Z,12.50
2023-01-03T00:17:06.213Z,10.83
2023-01-03T00:20:12.953Z,11.07
2023-01-03T00:23:16.626Z,9.57
2023-01-03T00:26:20.235Z,11.50
2023-01-03T00:29:24.180Z,9.13
2023-01-03T00:32:28.236Z,11.50
2023-01-03T00:35:33.507Z,11.60
2023-01-03T00:38:38.574Z,9.70
2023-01-03T00:41:43.005Z,7.83
2023-01-03T00:44:46.623Z,10.43
2023-01-03T00:47:50.305Z,10.57
2023-01-03T00:50:55.857Z,9.03
2023-01-03T00:54:02.738Z,12.90
2023-01-03T00:57:06.497Z,15.57
2023-01-03T01:00:11.896Z,9.47
2023-01-03T01:03:18.134Z,11.87
2023-01-03T01:06:27.558Z,12.70
2023-01-03T01:09:33.986Z,8.67
2023-01-03T01:12:37.835Z,21.50
2023-01-03T01:15:41.591Z,12.47
2023-01-03T01:18:48.505Z,9.33
2023-01-03T01:21:53.696Z,11.87
2023-01-03T01:24:57.681Z,9.57
2023-01-03T01:28:01.464Z,9.80
2023-01-03T01:31:07.542Z,16.07
2023-01-03T01:34:11.598Z,13.47
2023-01-03T01:37:16.694Z,11.87
2023-01-03T01:40:20.985Z,13.30
2023-01-03T01:43:51.835Z,10.43
2023-01-03T01:46:55.511Z,12.23
2023-01-03T01:50:06.963Z,9.90
2023-01-03T01:53:17.263Z,8.83
2023-01-03T01:56:26.934Z,10.23
2023-01-03T01:59:30.570Z,15.97
2023-01-03T02:02:34.445Z,15.10
2023-01-03T02:05:43.698Z,11.53
2023-01-03T02:08:48.822Z,8.57
2023-01-03T02:12:12.947Z,14.30
2023-01-03T02:15:46.645Z,13.60
2023-01-03T02:19:02.488Z,15.13
2023-01-03T02:22:39.572Z,11.80
2023-01-03T02:26:45.975Z,13.77
2023-01-03T02:30:38.920Z,11.00
2023-01-03T02:33:54.695Z,11.60
2023-01-03T02:37:13.820Z,11.13
2023-01-03T02:40:29.668Z,11.33
2023-01-03T02:43:46.638Z,10.63
2023-01-03T02:46:58.992Z,15.83
2023-01-03T02:50:09.394Z,16.70
2023-01-03T02:53:19.429Z,12.93
2023-01-03T02:56:33.686Z,11.80
2023-01-03T02:59:44.689Z,23.30
2023-01-03T03:02:55.560Z,12.93
2023-01-03T03:06:10.377Z,16.73
2023-01-03T03:09:14.073Z,10.63
2023-01-03T03:12:34.921Z,11.90
2023-01-03T03:15:51.272Z,12.70
2023-01-03T03:19:02.373Z,17.13
2023-01-03T03:22:29.722Z,18.07
2023-01-03T03:25:41.225Z,15.80
2023-01-03T03:28:50.892Z,14.83
2023-01-03T03:31:56.982Z,14.97
2023-01-03T03:35:09.092Z,11.93
2023-01-03T03:38:17.967Z,10.67
2023-01-03T03:41:51.361Z,11.50
2023-01-03T03:45:03.858Z,12.37
2023-01-03T03:48:16.802Z,10.40
2023-01-03T03:51:26.833Z,11.20
2023-01-03T03:54:35.527Z,11.17
2023-01-03T03:57:48.347Z,11.13
2023-01-03T04:00:54.434Z,9.80
2023-01-03T04:04:07.136Z,11.73
2023-01-03T04:07:12.437Z,15.80
2023-01-03T04:10:20.434Z,9.07
2023-01-03T04:13:24.129Z,11.23
2023-01-03T04:16:27.854Z,11.87
2023-01-03T04:19:31.706Z,12.37
2023-01-03T04:22:37.132Z,11.43
2023-01-03T04:25:40.765Z,13.23
2023-01-03T04:28:44.584Z,11.63
2023-01-03T04:31:49.206Z,12.47
2023-01-03T04:34:53.024Z,7.60
2023-01-03T04:37:59.278Z,9.00
2023-01-03T04:41:06.881Z,11.33
2023-01-03T04:44:10.285Z,11.53
2023-01-03T04:47:14.062Z,14.83
2023-01-03T04:50:17.881Z,10.13
2023-01-03T04:53:23.872Z,10.67
2023-01-03T04:56:30.552Z,12.73
2023-01-03T04:59:34.277Z,9.90
2023-01-03T05:02:37.979Z,14.13
2023-01-03T05:05:42.150Z,15.40
2023-01-03T05:08:48.727Z,16.17
2023-01-03T05:11:55.545Z,15.20
2023-01-03T05:14:59.320Z,12.50
2023-01-03T05:18:03.249Z,12.97
2023-01-03T05:21:26.343Z,15.87
2023-01-03T05:24:51.376Z,14.30
2023-01-03T05:27:55.553Z,22.00
2023-01-03T05:31:00.158Z,17.80
2023-01-03T05:34:03.840Z,13.57
2023-01-03T05:37:07.557Z,18.43
2023-01-03T05:40:13.430Z,12.97
2023-01-03T05:43:17.727Z,16.53
2023-01-03T05:46:22.010Z,14.53
2023-01-03T05:49:25.898Z,11.27
2023-01-03T05:52:29.619Z,11.10
2023-01-03T05:55:36.649Z,14.23
2023-01-03T05:58:40.362Z,11.93
2023-01-03T06:01:44.219Z,11.70
2023-01-03T06:04:47.942Z,13.30
2023-01-03T06:07:51.742Z,16.37
2023-01-03T06:10:57.236Z,19.37
2023-01-03T06:14:01.024Z,15.03
2023-01-03T06:17:22.108Z,13.10
2023-01-03T06:20:27.556Z,14.97
2023-01-03T06:23:31.176Z,17.97
2023-01-03T06:26:36.455Z,15.67
2023-01-03T06:29:40.131Z,17.00
2023-01-03T06:32:44.786Z,14.57
2023-01-03T06:35:48.584Z,15.23
2023-01-03T06:38:52.290Z,15.17
2023-01-03T06:41:57.304Z,16.00
2023-01-03T06:45:18.753Z,17.70
2023-01-03T06:48:39.826Z,18.53
2023-01-03T06:52:01.360Z,24.37
2023-01-03T06:55:07.503Z,22.33
2023-01-03T06:58:13.581Z,23.40
2023-01-03T07:01:17.500Z,25.57
2023-01-03T07:04:26.764Z,24.17
2023-01-03T07:07:30.505Z,23.53
2023-01-03T07:10:34.209Z,20.67
2023-01-03T07:13:56.610Z,23.37
2023-01-03T07:17:00.269Z,25.90
2023-01-03T07:20:04.147Z,20.97
2023-01-03T07:23:07.863Z,25.87
2023-01-03T07:26:11.563Z,25.43
2023-01-03T07:29:16.608Z,25.67
2023-01-03T07:32:20.213Z,22.20
2023-01-03T07:35:23.792Z,23.80
2023-01-03T07:38:27.448Z,28.63
2023-01-03T07:41:44.973Z,21.13
2023-01-03T07:44:49.979Z,24.33
2023-01-03T07:47:54.561Z,23.63
2023-01-03T07:51:00.409Z,24.53
2023-01-03T07:54:04.106Z,24.00
2023-01-03T07:57:07.755Z,26.37
2023-01-03T08:00:14.822Z,25.17
2023-01-03T08:03:19.155Z,27.13
2023-01-03T08:06:25.473Z,32.87
2023-01-03T08:09:46.480Z,26.77
2023-01-03T08:13:07.181Z,28.60
2023-01-03T08:16:14.781Z,27.47
2023-01-03T08:19:18.672Z,28.17
2023-01-03T08:22:22.311Z,30.03
2023-01-03T08:25:26.006Z,28.77
2023-01-03T08:28:29.932Z,31.83
2023-01-03T08:31:41.280Z,26.53
2023-01-03T08:34:48.542Z,29.53
2023-01-03T08:37:53.369Z,35.43
2023-01-03T08:40:58.336Z,28.03
2023-01-03T08:44:05.505Z,33.03
2023-01-03T08:47:11.144Z,29.73
2023-01-03T08:50:16.494Z,28.63
2023-01-03T08:53:20.476Z,28.43
2023-01-03T08:56:24.260Z,26.87
2023-01-03T08:59:27.996Z,30.13
2023-01-03T09:02:36.468Z,31.30
2023-01-03T09:05:40.693Z,31.27
2023-01-03T09:08:44.418Z,31.53
2023-01-03T09:11:48.058Z,28.03
2023-01-03T09:14:51.682Z,28.90
2023-01-03T09:17:56.760Z,28.27
2023-01-03T09:21:00.495Z,34.97
2023-01-03T09:24:04.244Z,29.37
2023-01-03T09:27:07.838Z,25.03
2023-01-03T09:30:13.688Z,29.20
2023-01-03T09:33:18.932Z,27.37
2023-01-03T09:36:25.551Z,23.23
2023-01-03T09:39:29.194Z,27.57
2023-01-03T09:42:50.331Z,26.17
2023-01-03T09:45:58.647Z,27.03
2023-01-03T09:49:07.083Z,26.43
2023-01-03T09:52:37.453Z,25.47
2023-01-03T09:56:09.847Z,26.43
2023-01-03T09:59:37.072Z,24.00
2023-01-03T10:03:29.547Z,24.47
2023-01-03T10:06:51.948Z,27.67
2023-01-03T10:10:14.386Z,27.93
2023-01-03T10:13:33.474Z,26.37
2023-01-03T10:16:56.254Z,27.23
2023-01-03T10:20:33.404Z,26.07
2023-01-03T10:23:39.181Z,25.87
2023-01-03T10:26:42.982Z,28.67
2023-01-03T10:29:51.661Z,23.90
2023-01-03T10:33:25.613Z,31.53
2023-01-03T10:36:29.661Z,29.13
2023-01-03T10:39:35.530Z,31.43
2023-01-03T10:42:43.655Z,29.10
2023-01-03T10:45:57.258Z,33.20
2023-01-03T10:49:28.832Z,30.90
2023-01-03T10:52:40.672Z,31.87
2023-01-03T10:55:53.337Z,32.07
2023-01-03T10:59:14.124Z,29.83
2023-01-03T11:02:20.213Z,36.37
2023-01-03T11:05:27.571Z,32.63
2023-01-03T11:08:44.531Z,37.40
2023-01-03T11:12:00.438Z,30.40
2023-01-03T11:15:17.324Z,37.30
2023-01-03T11:18:22.683Z,32.90
2023-01-03T11:21:36.832Z,37.23
2023-01-03T11:25:04.657Z,35.67
2023-01-03T11:28:46.976Z,32.03
2023-01-03T11:32:03.755Z,37.57
2023-01-03T11:35:53.610Z,33.27
2023-01-03T11:39:26.644Z,34.87
2023-01-03T11:42:57.424Z,35.87
2023-01-03T11:46:31.742Z,34.50
2023-01-03T11:49:53.678Z,33.63
2023-01-03T11:53:04.941Z,35.97
2023-01-03T11:56:26.761Z,34.93
2023-01-03T12:00:04.639Z,33.53
2023-01-03T12:03:23.877Z,32.03
2023-01-03T12:06:36.857Z,38.80
2023-01-03T12:09:51.751Z,32.97
2023-01-03T12:13:15.752Z,32.87
2023-01-03T12:16:30.800Z,32.10
2023-01-03T12:19:48.107Z,37.20
2023-01-03T12:23:00.518Z,31.97
2023-01-03T12:26:10.297Z,33.53
2023-01-03T12:29:22.076Z,37.97
2023-01-03T12:32:35.779Z,36.80
2023-01-03T12:35:52.361Z,34.20
2023-01-03T12:39:14.058Z,36.90
2023-01-03T12:42:35.171Z,38.00
2023-01-03T12:45:53.883Z,37.23
2023-01-03T12:49:08.795Z,36.13
2023-01-03T12:52:20.052Z,34.27
2023-01-03T12:55:42.143Z,35.70
2023-01-03T12:59:07.011Z,39.27
2023-01-03T13:02:25.388Z,37.10
2023-01-03T13:05:39.435Z,34.73
2023-01-03T13:08:49.807Z,30.20
2023-01-03T13:11:58.437Z,33.47
2023-01-03T13:15:18.668Z,35.50
2023-01-03T13:18:37.653Z,37.67
2023-01-03T13:22:21.852Z,36.43
2023-01-03T13:25:42.871Z,37.90
2023-01-03T13:28:47.767Z,34.17
2023-01-03T13:32:19.397Z,43.50
2023-01-03T13:35:37.860Z,36.33
2023-01-03T13:38:41.517Z,39.13
2023-01-03T13:41:55.043Z,38.87
2023-01-03T13:45:57.891Z,38.40
2023-01-03T13:49:05.883Z,36.10
2023-01-03T13:52:37.897Z,34.87
2023-01-03T13:55:52.701Z,33.63
2023-01-03T13:59:20.918Z,34.63
2023-01-03T14:03:17.993Z,34.23
2023-01-03T14:07:09.510Z,34.43
2023-01-03T14:10:34.888Z,43.80
2023-01-03T14:13:46.000Z,37.13
2023-01-03T14:16:54.443Z,36.20
2023-01-03T14:20:07.909Z,36.57
2023-01-03T14:23:57.792Z,35.87
2023-01-03T14:26:40.236Z,33.57
2023-01-03T14:29:50.008Z,38.47
2023-01-03T14:32:55.455Z,33.07
2023-01-03T14:36:06.658Z,35.47
2023-01-03T14:42:34.782Z,36.83
2023-01-03T14:45:38.436Z,35.20
2023-01-03T14:48:48.109Z,33.03
2023-01-03T14:51:53.797Z,32.77
2023-01-03T14:55:04.591Z,38.30
2023-01-03T14:58:33.432Z,35.77
2023-01-03T15:01:39.097Z,34.20
2023-01-03T15:04:54.651Z,33.13
2023-01-03T15:08:11.264Z,35.23
2023-01-03T15:11:16.569Z,34.87
2023-01-03T15:14:20.918Z,32.20
2023-01-03T15:17:28.240Z,34.93
2023-01-03T15:20:39.670Z,36.30
2023-01-03T15:23:47.697Z,37.83
2023-01-03T15:26:54.078Z,34.93
2023-01-03T15:29:57.938Z,36.53
2023-01-03T15:33:05.089Z,36.23
2023-01-03T15:36:19.109Z,35.10
2023-01-03T15:39:26.116Z,37.20
2023-01-03T15:42:59.497Z,36.20
2023-01-03T15:46:14.860Z,32.70
2023-01-03T15:49:25.208Z,34.50
2023-01-03T15:52:30.238Z,35.07
2023-01-03T15:55:34.412Z,33.87
2023-01-03T15:58:38.419Z,39.47
2023-01-03T16:01:42.509Z,37.10
2023-01-03T16:04:47.649Z,37.23
2023-01-03T16:07:52.905Z,33.73
2023-01-03T16:10:58.327Z,37.43
2023-01-03T16:14:06.645Z,35.67
2023-01-03T16:17:22.527Z,40.93
2023-01-03T16:20:34.442Z,35.03
2023-01-03T16:23:39.438Z,35.37
2023-01-03T16:26:43.153Z,39.37
2023-01-03T16:29:46.840Z,37.80
2023-01-03T16:32:51.170Z,33.27
2023-01-03T16:35:55.700Z,36.10
2023-01-03T16:39:01.921Z,36.07
2023-01-03T16:42:15.160Z,34.10
2023-01-03T16:45:19.584Z,30.23
2023-01-03T16:48:27.027Z,30.03
2023-01-03T16:51:35.336Z,29.67
2023-01-03T16:54:42.342Z,25.67
2023-01-03T16:57:50.344Z,29.00
2023-01-03T17:00:57.920Z,25.27
2023-01-03T17:04:01.603Z,22.17
2023-01-03T17:07:05.839Z,25.20
2023-01-03T17:10:27.037Z,23.17
2023-01-03T17:13:34.713Z,22.40
2023-01-03T17:16:38.397Z,21.70
2023-01-03T17:23:06.185Z,25.30
2023-01-03T17:26:20.928Z,23.77
2023-01-03T17:29:28.024Z,20.90
2023-01-03T17:32:31.724Z,19.43
2023-01-03T17:35:38.385Z,22.10
2023-01-03T17:38:43.364Z,22.70
2023-01-03T17:42:06.272Z,21.43
2023-01-03T17:45:41.032Z,23.53
2023-01-03T17:49:02.239Z,21.07
2023-01-03T17:52:08.432Z,22.93
2023-01-03T17:55:22.939Z,21.23
2023-01-03T17:58:34.452Z,26.13
2023-01-03T18:01:38.265Z,23.70
2023-01-03T18:05:13.713Z,24.67
2023-01-03T18:08:06.251Z,24.00
2023-01-03T18:11:16.446Z,23.93
2023-01-03T18:14:22.511Z,25.90
2023-01-03T18:17:30.884Z,20.33
2023-01-03T18:20:35.189Z,25.90
2023-01-03T18:23:40.405Z,26.30
2023-01-03T18:26:49.071Z,28.97
2023-01-03T18:29:54.566Z,24.07
2023-01-03T18:32:58.367Z,25.23
2023-01-03T18:36:02.481Z,26.03
2023-01-03T18:39:14.036Z,24.10
2023-01-03T18:42:35.522Z,26.30
2023-01-03T18:45:42.436Z,33.77
2023-01-03T18:48:46.053Z,23.97
2023-01-03T18:51:54.514Z,26.67
2023-01-03T18:54:58.342Z,25.77
2023-01-03T18:58:16.374Z,26.53
2023-01-03T19:01:21.497Z,28.20
2023-01-03T19:04:25.303Z,28.80
2023-01-03T19:07:34.453Z,29.60
2023-01-03T19:10:38.311Z,26.93
2023-01-03T19:13:52.022Z,30.30
2023-01-03T19:16:57.481Z,29.07
2023-01-03T19:20:01.291Z,27.53
2023-01-03T19:23:06.985Z,31.73
2023-01-03T19:26:29.359Z,28.37
2023-01-03T19:29:37.756Z,27.93
2023-01-03T19:32:43.197Z,28.03
2023-01-03T19:35:47.447Z,26.67
2023-01-03T19:38:51.058Z,31.33
2023-01-03T19:42:14.857Z,23.97
2023-01-03T19:45:37.133Z,25.40
2023-01-03T19:48:42.334Z,23.70
2023-01-03T19:51:45.912Z,18.77
2023-01-03T19:54:49.853Z,20.73
2023-01-03T19:57:53.851Z,21.30
2023-01-03T20:00:58.387Z,18.60
2023-01-03T20:04:03.660Z,17.67
2023-01-03T20:07:15.239Z,16.47
2023-01-03T20:10:21.714Z,19.40
2023-01-03T20:13:28.042Z,18.13
2023-01-03T20:16:31.710Z,17.37
2023-01-03T20:19:36.914Z,16.93
2023-01-03T20:26:05.620Z,18.70
2023-01-03T20:29:12.699Z,13.10
2023-01-03T20:32:16.518Z,14.93
2023-01-03T20:38:50.426Z,11.97
2023-01-03T20:41:57.356Z,15.10
2023-01-03T20:45:06.261Z,11.70
2023-01-03T20:48:21.150Z,12.37
2023-01-03T20:51:30.557Z,12.83
2023-01-03T20:54:34.309Z,14.43
2023-01-03T20:57:37.971Z,12.97
2023-01-03T21:00:41.773Z,11.80
2023-01-03T21:03:45.562Z,10.93
2023-01-03T21:06:52.772Z,9.87
2023-01-03T21:09:56.444Z,9.63
2023-01-03T21:13:00.489Z,10.07
2023-01-03T21:16:04.077Z,6.77
2023-01-03T21:19:13.940Z,10.27
2023-01-03T21:22:21.958Z,7.13
2023-01-03T21:25:28.562Z,9.67
2023-01-03T21:28:32.161Z,7.67
2023-01-03T21:31:37.359Z,8.53
2023-01-03T21:34:41.303Z,6.13
2023-01-03T21:37:47.068Z,8.43
2023-01-03T21:40:51.099Z,7.17
2023-01-03T21:43:57.043Z,6.77
2023-01-03T21:47:00.657Z,5.60
2023-01-03T21:50:04.466Z,6.10
2023-01-03T21:53:14.512Z,5.93
2023-01-03T21:56:22.416Z,4.93
2023-01-03T21:59:26.078Z,7.90
2023-01-03T22:02:47.562Z,3.07
2023-01-03T22:05:51.260Z,5.10
2023-01-03T22:08:56.903Z,5.23
2023-01-03T22:12:00.560Z,4.43
2023-01-03T22:15:04.567Z,4.30
2023-01-03T22:18:11.045Z,4.50
2023-01-03T22:21:15.356Z,5.43
2023-01-03T22:24:20.347Z,4.10
2023-01-03T22:27:23.982Z,7.30
2023-01-03T22:30:27.916Z,5.33
2023-01-03T22:33:33.987Z,5.40
2023-01-03T22:36:37.559Z,3.00
2023-01-03T22:39:42.541Z,5.07
2023-01-03T22:42:46.147Z,5.53
2023-01-03T22:45:49.895Z,6.50
2023-01-03T22:48:54.052Z,7.93
2023-01-03T22:51:57.790Z,4.43
2023-01-03T22:55:02.887Z,4.70
2023-01-03T22:58:06.582Z,11.00
2023-01-03T23:01:13.246Z,3.57
2023-01-03T23:04:19.315Z,5.07
2023-01-03T23:07:23.052Z,4.90
2023-01-03T23:10:28.236Z,8.43
2023-01-03T23:13:30.830Z,3.10
2023-01-03T23:16:34.777Z,4.53
2023-01-03T23:19:38.494Z,1.93
2023-01-03T23:22:43.866Z,5.17
2023-01-03T23:25:48.837Z,5.63
2023-01-03T23:28:56.753Z,4.27
2023-01-03T23:32:00.511Z,4.67
2023-01-03T23:35:04.503Z,5.20
2023-01-03T23:38:08.058Z,5.03
2023-01-03T23:41:13.179Z,4.10
2023-01-03T23:44:16.908Z,5.60
2023-01-03T23:47:20.613Z,4.87
2023-01-03T23:50:24.288Z,2.17
2023-01-03T23:53:27.817Z,6.43
2023-01-03T23:56:32.839Z,4.47
2023-01-03T23:59:36.507Z,3.37
